sensor_id;sensor_type;location;lat;lon;timestamp;temperature;humidity
3136;DHT22;1578;47.658;9.922;2023-02-28T00:01:12;-2.10;51.20
3136;DHT22;1578;47.658;9.922;2023-02-28T00:03:38;-2.20;51.60
3136;DHT22;1578;47.658;9.922;2023-02-28T00:06:05;-2.20;51.80
3136;DHT22;1578;47.658;9.922;2023-02-28T00:08:31;-2.10;51.20
3136;DHT22;1578;47.658;9.922;2023-02-28T00:11:04;-2.10;51.20
3136;DHT22;1578;47.658;9.922;2023-02-28T00:13:31;-2.10;51.00
3136;DHT22;1578;47.658;9.922;2023-02-28T00:16:02;-2.10;51.20
3136;DHT22;1578;47.658;9.922;2023-02-28T00:18:29;-2.00;50.60
3136;DHT22;1578;47.658;9.922;2023-02-28T00:20:54;-2.10;50.40
3136;DHT22;1578;47.658;9.922;2023-02-28T00:23:20;-2.10;50.80
3136;DHT22;1578;47.658;9.922;2023-02-28T00:25:46;-2.10;50.10
3136;DHT22;1578;47.658;9.922;2023-02-28T00:28:11;-2.10;50.00
3136;DHT22;1578;47.658;9.922;2023-02-28T00:30:38;-2.10;50.90
3136;DHT22;1578;47.658;9.922;2023-02-28T00:33:03;-2.20;51.10
3136;DHT22;1578;47.658;9.922;2023-02-28T00:35:29;-2.20;49.80
3136;DHT22;1578;47.658;9.922;2023-02-28T00:37:55;-2.20;49.10
3136;DHT22;1578;47.658;9.922;2023-02-28T00:40:21;-2.20;49.00
3136;DHT22;1578;47.658;9.922;2023-02-28T00:42:46;-2.20;50.00
3136;DHT22;1578;47.658;9.922;2023-02-28T00:45:12;-2.10;48.60
3136;DHT22;1578;47.658;9.922;2023-02-28T00:47:37;-2.30;49.30
3136;DHT22;1578;47.658;9.922;2023-02-28T00:50:04;-2.30;49.90
3136;DHT22;1578;47.658;9.922;2023-02-28T00:52:30;-2.30;49.40
3136;DHT22;1578;47.658;9.922;2023-02-28T00:54:55;-2.40;50.20
3136;DHT22;1578;47.658;9.922;2023-02-28T00:57:21;-2.30;48.10
3136;DHT22;1578;47.658;9.922;2023-02-28T00:59:47;-2.30;48.70
3136;DHT22;1578;47.658;9.922;2023-02-28T01:02:12;-2.40;49.20
3136;DHT22;1578;47.658;9.922;2023-02-28T01:04:38;-2.40;49.30
3136;DHT22;1578;47.658;9.922;2023-02-28T01:07:03;-2.40;49.90
3136;DHT22;1578;47.658;9.922;2023-02-28T01:09:29;-2.50;49.10
3136;DHT22;1578;47.658;9.922;2023-02-28T01:11:55;-2.50;49.50
3136;DHT22;1578;47.658;9.922;2023-02-28T01:14:20;-2.40;49.30
3136;DHT22;1578;47.658;9.922;2023-02-28T01:16:46;-2.50;49.10
3136;DHT22;1578;47.658;9.922;2023-02-28T01:19:11;-2.50;48.70
3136;DHT22;1578;47.658;9.922;2023-02-28T01:21:37;-2.50;49.40
3136;DHT22;1578;47.658;9.922;2023-02-28T01:24:04;-2.60;49.60
3136;DHT22;1578;47.658;9.922;2023-02-28T01:26:30;-2.60;49.50
3136;DHT22;1578;47.658;9.922;2023-02-28T01:28:56;-2.50;48.80
3136;DHT22;1578;47.658;9.922;2023-02-28T01:31:22;-2.60;48.90
3136;DHT22;1578;47.658;9.922;2023-02-28T01:33:48;-2.50;48.60
3136;DHT22;1578;47.658;9.922;2023-02-28T01:36:20;-2.60;48.80
3136;DHT22;1578;47.658;9.922;2023-02-28T01:38:46;-2.60;49.00
3136;DHT22;1578;47.658;9.922;2023-02-28T01:41:21;-2.60;48.90
3136;DHT22;1578;47.658;9.922;2023-02-28T01:46:13;-2.60;48.90
3136;DHT22;1578;47.658;9.922;2023-02-28T01:48:48;-2.60;49.10
3136;DHT22;1578;47.658;9.922;2023-02-28T01:51:20;-2.70;49.40
3136;DHT22;1578;47.658;9.922;2023-02-28T01:53:58;-2.60;49.50
3136;DHT22;1578;47.658;9.922;2023-02-28T01:56:29;-2.60;49.30
3136;DHT22;1578;47.658;9.922;2023-02-28T01:58:56;-2.60;48.90
3136;DHT22;1578;47.658;9.922;2023-02-28T02:01:22;-2.60;49.90
3136;DHT22;1578;47.658;9.922;2023-02-28T02:03:52;-2.60;49.30
3136;DHT22;1578;47.658;9.922;2023-02-28T02:06:36;-2.60;49.00
3136;DHT22;1578;47.658;9.922;2023-02-28T02:09:02;-2.60;49.00
3136;DHT22;1578;47.658;9.922;2023-02-28T02:11:28;-2.60;49.30
3136;DHT22;1578;47.658;9.922;2023-02-28T02:14:18;-2.60;49.00
3136;DHT22;1578;47.658;9.922;2023-02-28T02:20:37;-2.70;49.20
3136;DHT22;1578;47.658;9.922;2023-02-28T02:23:45;-2.70;49.90
3136;DHT22;1578;47.658;9.922;2023-02-28T02:40:19;-3.10;50.40
3136;DHT22;1578;47.658;9.922;2023-02-28T02:43:07;-3.10;50.60
3136;DHT22;1578;47.658;9.922;2023-02-28T02:45:56;-3.10;50.40
3136;DHT22;1578;47.658;9.922;2023-02-28T02:48:26;-3.20;51.50
3136;DHT22;1578;47.658;9.922;2023-02-28T02:50:56;-3.20;50.30
3136;DHT22;1578;47.658;9.922;2023-02-28T02:53:30;-3.20;51.10
3136;DHT22;1578;47.658;9.922;2023-02-28T02:55:59;-3.30;51.30
3136;DHT22;1578;47.658;9.922;2023-02-28T02:58:29;-3.30;51.50
3136;DHT22;1578;47.658;9.922;2023-02-28T03:00:59;-3.20;52.20
3136;DHT22;1578;47.658;9.922;2023-02-28T03:03:27;-3.30;52.50
3136;DHT22;1578;47.658;9.922;2023-02-28T03:05:56;-3.20;51.20
3136;DHT22;1578;47.658;9.922;2023-02-28T03:08:22;-3.20;50.60
3136;DHT22;1578;47.658;9.922;2023-02-28T03:10:51;-3.30;50.20
3136;DHT22;1578;47.658;9.922;2023-02-28T03:19:25;-3.30;51.70
3136;DHT22;1578;47.658;9.922;2023-02-28T03:27:36;-3.50;54.50
3136;DHT22;1578;47.658;9.922;2023-02-28T03:30:06;-3.50;54.50
3136;DHT22;1578;47.658;9.922;2023-02-28T03:32:46;-3.50;54.50
3136;DHT22;1578;47.658;9.922;2023-02-28T03:35:23;-3.50;54.90
3136;DHT22;1578;47.658;9.922;2023-02-28T03:37:53;-3.40;54.90
3136;DHT22;1578;47.658;9.922;2023-02-28T03:40:24;-3.30;54.60
3136;DHT22;1578;47.658;9.922;2023-02-28T03:42:55;-3.30;54.70
3136;DHT22;1578;47.658;9.922;2023-02-28T03:45:26;-3.30;54.60
3136;DHT22;1578;47.658;9.922;2023-02-28T03:50:26;-3.20;54.50
3136;DHT22;1578;47.658;9.922;2023-02-28T03:53:01;-3.10;53.70
3136;DHT22;1578;47.658;9.922;2023-02-28T03:55:34;-3.20;54.30
3136;DHT22;1578;47.658;9.922;2023-02-28T04:00:41;-3.10;53.40
3136;DHT22;1578;47.658;9.922;2023-02-28T04:03:10;-3.00;52.90
3136;DHT22;1578;47.658;9.922;2023-02-28T04:05:48;-3.10;53.40
3136;DHT22;1578;47.658;9.922;2023-02-28T04:08:15;-3.10;53.20
3136;DHT22;1578;47.658;9.922;2023-02-28T04:10:41;-3.00;53.40
3136;DHT22;1578;47.658;9.922;2023-02-28T04:13:08;-3.00;52.90
3136;DHT22;1578;47.658;9.922;2023-02-28T04:15:34;-3.00;52.50
3136;DHT22;1578;47.658;9.922;2023-02-28T04:18:00;-3.00;51.80
3136;DHT22;1578;47.658;9.922;2023-02-28T04:20:25;-2.90;52.10
3136;DHT22;1578;47.658;9.922;2023-02-28T04:22:51;-3.00;51.30
3136;DHT22;1578;47.658;9.922;2023-02-28T04:25:16;-2.90;52.10
3136;DHT22;1578;47.658;9.922;2023-02-28T04:27:44;-2.90;51.80
3136;DHT22;1578;47.658;9.922;2023-02-28T04:30:12;-2.90;52.60
3136;DHT22;1578;47.658;9.922;2023-02-28T04:32:38;-2.90;52.50
3136;DHT22;1578;47.658;9.922;2023-02-28T04:35:04;-2.80;52.40
3136;DHT22;1578;47.658;9.922;2023-02-28T04:37:30;-2.80;52.20
3136;DHT22;1578;47.658;9.922;2023-02-28T04:40:00;-2.80;52.00
3136;DHT22;1578;47.658;9.922;2023-02-28T04:42:26;-2.90;52.60
3136;DHT22;1578;47.658;9.922;2023-02-28T04:44:52;-2.80;52.70
3136;DHT22;1578;47.658;9.922;2023-02-28T04:47:17;-2.70;52.80
3136;DHT22;1578;47.658;9.922;2023-02-28T04:49:43;-2.70;52.30
3136;DHT22;1578;47.658;9.922;2023-02-28T04:52:09;-2.70;51.70
3136;DHT22;1578;47.658;9.922;2023-02-28T04:54:35;-2.70;52.40
3136;DHT22;1578;47.658;9.922;2023-02-28T04:57:01;-2.70;51.80
3136;DHT22;1578;47.658;9.922;2023-02-28T04:59:27;-2.70;51.00
3136;DHT22;1578;47.658;9.922;2023-02-28T05:01:52;-2.70;51.80
3136;DHT22;1578;47.658;9.922;2023-02-28T05:04:18;-2.80;52.00
3136;DHT22;1578;47.658;9.922;2023-02-28T05:06:44;-2.80;52.20
3136;DHT22;1578;47.658;9.922;2023-02-28T05:09:10;-2.70;51.90
3136;DHT22;1578;47.658;9.922;2023-02-28T05:11:37;-2.70;50.70
3136;DHT22;1578;47.658;9.922;2023-02-28T05:14:06;-2.70;50.10
3136;DHT22;1578;47.658;9.922;2023-02-28T05:16:32;-2.80;51.50
3136;DHT22;1578;47.658;9.922;2023-02-28T05:18:58;-2.90;53.10
3136;DHT22;1578;47.658;9.922;2023-02-28T05:23:52;-2.90;51.90
3136;DHT22;1578;47.658;9.922;2023-02-28T05:26:18;-3.00;52.90
3136;DHT22;1578;47.658;9.922;2023-02-28T05:28:43;-3.00;52.60
3136;DHT22;1578;47.658;9.922;2023-02-28T05:31:10;-3.00;52.80
3136;DHT22;1578;47.658;9.922;2023-02-28T05:33:36;-3.00;52.20
3136;DHT22;1578;47.658;9.922;2023-02-28T05:36:02;-3.10;52.00
3136;DHT22;1578;47.658;9.922;2023-02-28T05:38:28;-3.10;52.80
3136;DHT22;1578;47.658;9.922;2023-02-28T05:40:54;-3.20;52.50
3136;DHT22;1578;47.658;9.922;2023-02-28T05:43:19;-3.20;52.50
3136;DHT22;1578;47.658;9.922;2023-02-28T05:45:45;-3.20;53.30
3136;DHT22;1578;47.658;9.922;2023-02-28T05:48:11;-3.30;53.10
3136;DHT22;1578;47.658;9.922;2023-02-28T05:50:37;-3.30;53.90
3136;DHT22;1578;47.658;9.922;2023-02-28T05:53:03;-3.30;53.40
3136;DHT22;1578;47.658;9.922;2023-02-28T05:55:29;-3.40;54.10
3136;DHT22;1578;47.658;9.922;2023-02-28T05:57:55;-3.40;54.60
3136;DHT22;1578;47.658;9.922;2023-02-28T06:00:22;-3.40;53.10
3136;DHT22;1578;47.658;9.922;2023-02-28T06:02:48;-3.30;53.50
3136;DHT22;1578;47.658;9.922;2023-02-28T06:05:16;-3.40;53.50
3136;DHT22;1578;47.658;9.922;2023-02-28T06:07:43;-3.50;54.00
3136;DHT22;1578;47.658;9.922;2023-02-28T06:10:10;-3.50;54.50
3136;DHT22;1578;47.658;9.922;2023-02-28T06:12:37;-3.50;54.50
3136;DHT22;1578;47.658;9.922;2023-02-28T06:15:03;-3.50;55.10
3136;DHT22;1578;47.658;9.922;2023-02-28T06:17:29;-3.50;54.50
3136;DHT22;1578;47.658;9.922;2023-02-28T06:19:55;-3.50;54.90
3136;DHT22;1578;47.658;9.922;2023-02-28T06:22:20;-3.50;54.60
3136;DHT22;1578;47.658;9.922;2023-02-28T06:24:46;-3.50;55.50
3136;DHT22;1578;47.658;9.922;2023-02-28T06:27:12;-3.50;55.60
3136;DHT22;1578;47.658;9.922;2023-02-28T06:29:37;-3.40;55.90
3136;DHT22;1578;47.658;9.922;2023-02-28T06:32:05;-3.40;56.40
3136;DHT22;1578;47.658;9.922;2023-02-28T06:34:30;-3.40;57.00
3136;DHT22;1578;47.658;9.922;2023-02-28T06:36:56;-3.30;55.60
3136;DHT22;1578;47.658;9.922;2023-02-28T06:39:22;-3.20;55.40
3136;DHT22;1578;47.658;9.922;2023-02-28T06:41:47;-3.10;55.80
3136;DHT22;1578;47.658;9.922;2023-02-28T06:44:15;-3.10;54.90
3136;DHT22;1578;47.658;9.922;2023-02-28T06:46:42;-2.90;53.50
3136;DHT22;1578;47.658;9.922;2023-02-28T06:49:09;-2.90;54.70
3136;DHT22;1578;47.658;9.922;2023-02-28T06:51:39;-2.90;55.00
3136;DHT22;1578;47.658;9.922;2023-02-28T06:54:05;-2.90;52.80
3136;DHT22;1578;47.658;9.922;2023-02-28T06:56:34;-2.80;51.90
3136;DHT22;1578;47.658;9.922;2023-02-28T06:59:00;-2.80;53.10
3136;DHT22;1578;47.658;9.922;2023-02-28T07:01:26;-2.80;51.20
3136;DHT22;1578;47.658;9.922;2023-02-28T07:03:54;-2.80;53.00
3136;DHT22;1578;47.658;9.922;2023-02-28T07:06:21;-2.70;52.50
3136;DHT22;1578;47.658;9.922;2023-02-28T07:08:48;-2.60;51.30
3136;DHT22;1578;47.658;9.922;2023-02-28T07:11:15;-2.60;52.00
3136;DHT22;1578;47.658;9.922;2023-02-28T07:13:41;-2.60;50.40
3136;DHT22;1578;47.658;9.922;2023-02-28T07:16:09;-2.60;50.90
3136;DHT22;1578;47.658;9.922;2023-02-28T07:18:36;-2.60;50.20
3136;DHT22;1578;47.658;9.922;2023-02-28T07:21:03;-2.50;51.80
3136;DHT22;1578;47.658;9.922;2023-02-28T07:23:29;-2.40;50.70
3136;DHT22;1578;47.658;9.922;2023-02-28T07:25:55;-2.40;49.70
3136;DHT22;1578;47.658;9.922;2023-02-28T07:28:20;-2.20;51.00
3136;DHT22;1578;47.658;9.922;2023-02-28T07:30:46;-2.30;48.60
3136;DHT22;1578;47.658;9.922;2023-02-28T07:33:12;-2.20;49.60
3136;DHT22;1578;47.658;9.922;2023-02-28T07:35:37;-2.10;49.20
3136;DHT22;1578;47.658;9.922;2023-02-28T07:38:03;-2.00;48.80
3136;DHT22;1578;47.658;9.922;2023-02-28T07:40:29;-1.90;46.90
3136;DHT22;1578;47.658;9.922;2023-02-28T07:42:55;-1.80;46.50
3136;DHT22;1578;47.658;9.922;2023-02-28T07:45:20;-1.70;46.00
3136;DHT22;1578;47.658;9.922;2023-02-28T07:47:46;-1.60;47.10
3136;DHT22;1578;47.658;9.922;2023-02-28T07:50:14;-1.60;44.70
3136;DHT22;1578;47.658;9.922;2023-02-28T07:52:40;-1.60;45.50
3136;DHT22;1578;47.658;9.922;2023-02-28T07:55:08;-1.50;44.50
3136;DHT22;1578;47.658;9.922;2023-02-28T07:57:34;-1.40;45.70
3136;DHT22;1578;47.658;9.922;2023-02-28T08:00:00;-1.40;44.20
3136;DHT22;1578;47.658;9.922;2023-02-28T08:02:25;-1.40;42.70
3136;DHT22;1578;47.658;9.922;2023-02-28T08:04:51;-1.40;42.60
3136;DHT22;1578;47.658;9.922;2023-02-28T08:07:18;-1.60;42.10
3136;DHT22;1578;47.658;9.922;2023-02-28T08:09:44;-1.60;42.90
3136;DHT22;1578;47.658;9.922;2023-02-28T08:12:11;-1.50;44.40
3136;DHT22;1578;47.658;9.922;2023-02-28T08:14:37;-1.40;43.50
3136;DHT22;1578;47.658;9.922;2023-02-28T08:17:04;-1.40;40.30
3136;DHT22;1578;47.658;9.922;2023-02-28T08:19:30;-1.20;43.20
3136;DHT22;1578;47.658;9.922;2023-02-28T08:21:57;-1.20;42.60
3136;DHT22;1578;47.658;9.922;2023-02-28T08:24:23;-0.90;42.50
3136;DHT22;1578;47.658;9.922;2023-02-28T08:26:48;-1.10;39.00
3136;DHT22;1578;47.658;9.922;2023-02-28T08:29:14;-1.00;43.80
3136;DHT22;1578;47.658;9.922;2023-02-28T08:31:41;-0.80;41.30
3136;DHT22;1578;47.658;9.922;2023-02-28T08:34:12;-0.80;38.50
3136;DHT22;1578;47.658;9.922;2023-02-28T08:36:37;-0.60;38.70
3136;DHT22;1578;47.658;9.922;2023-02-28T08:39:04;-0.50;38.70
3136;DHT22;1578;47.658;9.922;2023-02-28T08:41:30;-0.40;37.30
3136;DHT22;1578;47.658;9.922;2023-02-28T08:43:56;-0.40;37.30
3136;DHT22;1578;47.658;9.922;2023-02-28T08:46:22;-0.20;36.00
3136;DHT22;1578;47.658;9.922;2023-02-28T08:48:52;-0.20;37.20
3136;DHT22;1578;47.658;9.922;2023-02-28T08:51:18;-0.10;35.80
3136;DHT22;1578;47.658;9.922;2023-02-28T08:53:47;-0.10;36.50
3136;DHT22;1578;47.658;9.922;2023-02-28T08:56:16;0.10;34.50
3136;DHT22;1578;47.658;9.922;2023-02-28T08:58:45;0.20;34.30
3136;DHT22;1578;47.658;9.922;2023-02-28T09:01:14;0.30;33.10
3136;DHT22;1578;47.658;9.922;2023-02-28T09:03:41;0.40;33.10
3136;DHT22;1578;47.658;9.922;2023-02-28T09:06:07;0.60;32.50
3136;DHT22;1578;47.658;9.922;2023-02-28T09:08:34;0.60;31.80
3136;DHT22;1578;47.658;9.922;2023-02-28T09:11:00;0.50;30.00
3136;DHT22;1578;47.658;9.922;2023-02-28T09:13:27;0.50;29.70
3136;DHT22;1578;47.658;9.922;2023-02-28T09:15:56;0.50;33.80
3136;DHT22;1578;47.658;9.922;2023-02-28T09:18:22;0.70;31.50
3136;DHT22;1578;47.658;9.922;2023-02-28T09:20:48;0.80;32.10
3136;DHT22;1578;47.658;9.922;2023-02-28T09:23:13;0.90;31.80
3136;DHT22;1578;47.658;9.922;2023-02-28T09:25:48;1.00;30.50
3136;DHT22;1578;47.658;9.922;2023-02-28T09:28:15;0.90;27.70
3136;DHT22;1578;47.658;9.922;2023-02-28T09:30:46;1.10;30.00
3136;DHT22;1578;47.658;9.922;2023-02-28T09:33:12;0.90;29.10
3136;DHT22;1578;47.658;9.922;2023-02-28T09:35:38;0.80;28.80
3136;DHT22;1578;47.658;9.922;2023-02-28T09:38:04;0.60;32.00
3136;DHT22;1578;47.658;9.922;2023-02-28T09:40:30;0.50;33.10
3136;DHT22;1578;47.658;9.922;2023-02-28T09:42:57;0.50;32.90
3136;DHT22;1578;47.658;9.922;2023-02-28T09:45:34;0.60;32.90
3136;DHT22;1578;47.658;9.922;2023-02-28T09:48:04;0.60;32.70
3136;DHT22;1578;47.658;9.922;2023-02-28T09:50:40;0.50;32.50
3136;DHT22;1578;47.658;9.922;2023-02-28T09:53:26;0.50;30.10
3136;DHT22;1578;47.658;9.922;2023-02-28T09:55:55;0.60;29.00
3136;DHT22;1578;47.658;9.922;2023-02-28T09:58:40;0.40;30.80
3136;DHT22;1578;47.658;9.922;2023-02-28T10:01:25;0.40;31.90
3136;DHT22;1578;47.658;9.922;2023-02-28T10:06:50;0.40;31.90
3136;DHT22;1578;47.658;9.922;2023-02-28T10:09:26;0.60;30.90
3136;DHT22;1578;47.658;9.922;2023-02-28T10:11:57;0.50;33.00
3136;DHT22;1578;47.658;9.922;2023-02-28T10:14:28;0.50;33.50
3136;DHT22;1578;47.658;9.922;2023-02-28T10:22:37;0.70;31.70
3136;DHT22;1578;47.658;9.922;2023-02-28T10:25:22;0.60;30.10
3136;DHT22;1578;47.658;9.922;2023-02-28T10:27:52;0.60;32.00
3136;DHT22;1578;47.658;9.922;2023-02-28T10:30:18;0.40;32.00
3136;DHT22;1578;47.658;9.922;2023-02-28T10:32:51;0.60;33.80
3136;DHT22;1578;47.658;9.922;2023-02-28T10:35:26;0.40;33.80
3136;DHT22;1578;47.658;9.922;2023-02-28T10:37:57;0.40;34.30
3136;DHT22;1578;47.658;9.922;2023-02-28T10:43:12;0.70;36.40
3136;DHT22;1578;47.658;9.922;2023-02-28T10:46:16;0.80;31.40
3136;DHT22;1578;47.658;9.922;2023-02-28T10:49:04;0.50;31.80
3136;DHT22;1578;47.658;9.922;2023-02-28T10:51:38;0.40;32.00
3136;DHT22;1578;47.658;9.922;2023-02-28T10:54:04;0.50;33.20
3136;DHT22;1578;47.658;9.922;2023-02-28T10:56:31;0.50;32.00
3136;DHT22;1578;47.658;9.922;2023-02-28T10:59:30;0.40;33.70
3136;DHT22;1578;47.658;9.922;2023-02-28T11:01:56;0.40;30.90
3136;DHT22;1578;47.658;9.922;2023-02-28T11:07:20;0.50;34.40
3136;DHT22;1578;47.658;9.922;2023-02-28T11:09:54;0.70;31.40
3136;DHT22;1578;47.658;9.922;2023-02-28T11:12:39;0.80;35.10
3136;DHT22;1578;47.658;9.922;2023-02-28T11:15:28;1.10;34.70
3136;DHT22;1578;47.658;9.922;2023-02-28T11:18:24;1.40;35.00
3136;DHT22;1578;47.658;9.922;2023-02-28T11:20:54;1.70;33.00
3136;DHT22;1578;47.658;9.922;2023-02-28T11:23:25;1.90;30.80
3136;DHT22;1578;47.658;9.922;2023-02-28T11:25:54;1.70;30.50
3136;DHT22;1578;47.658;9.922;2023-02-28T11:33:44;1.70;29.60
3136;DHT22;1578;47.658;9.922;2023-02-28T11:36:31;1.60;28.80
3136;DHT22;1578;47.658;9.922;2023-02-28T11:38:59;1.40;29.90
3136;DHT22;1578;47.658;9.922;2023-02-28T11:42:07;1.30;30.70
3136;DHT22;1578;47.658;9.922;2023-02-28T11:47:21;1.30;31.70
3136;DHT22;1578;47.658;9.922;2023-02-28T11:50:31;1.40;30.20
3136;DHT22;1578;47.658;9.922;2023-02-28T11:53:22;1.30;32.50
3136;DHT22;1578;47.658;9.922;2023-02-28T11:55:54;1.30;31.00
3136;DHT22;1578;47.658;9.922;2023-02-28T11:58:48;1.60;30.90
3136;DHT22;1578;47.658;9.922;2023-02-28T12:06:44;5.40;15.10
3136;DHT22;1578;47.658;9.922;2023-02-28T12:11:52;4.50;17.30
3136;DHT22;1578;47.658;9.922;2023-02-28T12:20:21;3.60;19.90
3136;DHT22;1578;47.658;9.922;2023-02-28T12:27:59;4.30;17.20
3136;DHT22;1578;47.658;9.922;2023-02-28T12:30:32;3.90;18.20
3136;DHT22;1578;47.658;9.922;2023-02-28T12:33:11;3.50;21.90
3136;DHT22;1578;47.658;9.922;2023-02-28T12:35:52;3.10;20.40
3136;DHT22;1578;47.658;9.922;2023-02-28T12:38:37;3.30;24.00
3136;DHT22;1578;47.658;9.922;2023-02-28T12:41:16;3.60;20.70
3136;DHT22;1578;47.658;9.922;2023-02-28T12:43:48;3.90;21.00
3136;DHT22;1578;47.658;9.922;2023-02-28T12:46:46;4.30;18.30
3136;DHT22;1578;47.658;9.922;2023-02-28T12:49:19;4.40;16.10
3136;DHT22;1578;47.658;9.922;2023-02-28T12:51:49;3.60;17.40
3136;DHT22;1578;47.658;9.922;2023-02-28T12:54:24;3.00;19.20
3136;DHT22;1578;47.658;9.922;2023-02-28T12:59:48;2.70;28.20
3136;DHT22;1578;47.658;9.922;2023-02-28T13:02:33;3.00;28.20
3136;DHT22;1578;47.658;9.922;2023-02-28T13:08:26;3.10;26.10
3136;DHT22;1578;47.658;9.922;2023-02-28T13:10:58;2.50;27.90
3136;DHT22;1578;47.658;9.922;2023-02-28T13:13:26;2.30;29.30
3136;DHT22;1578;47.658;9.922;2023-02-28T13:16:00;2.00;28.30
3136;DHT22;1578;47.658;9.922;2023-02-28T13:20:54;1.60;32.80
3136;DHT22;1578;47.658;9.922;2023-02-28T13:39:57;1.40;32.50
3136;DHT22;1578;47.658;9.922;2023-02-28T13:47:43;1.60;31.50
3136;DHT22;1578;47.658;9.922;2023-02-28T13:53:00;1.30;34.90
3136;DHT22;1578;47.658;9.922;2023-02-28T14:03:58;1.40;33.10
3136;DHT22;1578;47.658;9.922;2023-02-28T14:06:28;1.10;37.30
3136;DHT22;1578;47.658;9.922;2023-02-28T14:09:23;0.90;36.60
3136;DHT22;1578;47.658;9.922;2023-02-28T14:11:50;0.80;40.50
3136;DHT22;1578;47.658;9.922;2023-02-28T14:17:22;0.70;37.30
3136;DHT22;1578;47.658;9.922;2023-02-28T14:19:47;0.70;38.70
3136;DHT22;1578;47.658;9.922;2023-02-28T14:25:14;0.70;39.70
3136;DHT22;1578;47.658;9.922;2023-02-28T14:36:12;0.90;40.00
3136;DHT22;1578;47.658;9.922;2023-02-28T14:44:01;0.70;39.70
3136;DHT22;1578;47.658;9.922;2023-02-28T14:46:40;0.70;42.50
3136;DHT22;1578;47.658;9.922;2023-02-28T14:49:12;0.70;41.30
3136;DHT22;1578;47.658;9.922;2023-02-28T14:51:38;0.60;42.60
3136;DHT22;1578;47.658;9.922;2023-02-28T14:54:04;0.70;42.20
3136;DHT22;1578;47.658;9.922;2023-02-28T14:56:35;0.70;43.00
3136;DHT22;1578;47.658;9.922;2023-02-28T14:59:02;0.80;41.70
3136;DHT22;1578;47.658;9.922;2023-02-28T15:01:28;0.80;42.60
3136;DHT22;1578;47.658;9.922;2023-02-28T15:04:22;0.90;41.40
3136;DHT22;1578;47.658;9.922;2023-02-28T15:07:14;0.90;39.70
3136;DHT22;1578;47.658;9.922;2023-02-28T15:09:40;0.70;39.70
3136;DHT22;1578;47.658;9.922;2023-02-28T15:12:06;0.70;39.70
3136;DHT22;1578;47.658;9.922;2023-02-28T15:14:33;0.70;39.70
3136;DHT22;1578;47.658;9.922;2023-02-28T15:17:08;0.70;38.70
3136;DHT22;1578;47.658;9.922;2023-02-28T15:19:40;0.60;40.20
3136;DHT22;1578;47.658;9.922;2023-02-28T15:22:13;0.50;41.00
3136;DHT22;1578;47.658;9.922;2023-02-28T15:24:47;0.40;40.80
3136;DHT22;1578;47.658;9.922;2023-02-28T15:27:23;0.40;41.90
3136;DHT22;1578;47.658;9.922;2023-02-28T15:29:58;0.40;42.70
3136;DHT22;1578;47.658;9.922;2023-02-28T15:32:26;0.40;41.50
3136;DHT22;1578;47.658;9.922;2023-02-28T15:34:52;0.50;41.90
3136;DHT22;1578;47.658;9.922;2023-02-28T15:37:40;0.40;42.40
3136;DHT22;1578;47.658;9.922;2023-02-28T15:40:57;0.40;41.50
3136;DHT22;1578;47.658;9.922;2023-02-28T15:46:12;0.20;42.30
3136;DHT22;1578;47.658;9.922;2023-02-28T15:48:54;0.20;43.70
3136;DHT22;1578;47.658;9.922;2023-02-28T15:51:29;0.10;44.50
3136;DHT22;1578;47.658;9.922;2023-02-28T15:54:00;0.00;43.80
3136;DHT22;1578;47.658;9.922;2023-02-28T15:56:29;-0.10;45.00
3136;DHT22;1578;47.658;9.922;2023-02-28T15:59:01;-0.10;44.20
3136;DHT22;1578;47.658;9.922;2023-02-28T16:01:30;-0.20;45.70
3136;DHT22;1578;47.658;9.922;2023-02-28T16:03:59;-0.30;45.50
3136;DHT22;1578;47.658;9.922;2023-02-28T16:09:04;-0.40;47.50
3136;DHT22;1578;47.658;9.922;2023-02-28T16:11:37;-0.50;48.00
3136;DHT22;1578;47.658;9.922;2023-02-28T16:14:04;-0.50;48.00
3136;DHT22;1578;47.658;9.922;2023-02-28T16:16:31;-0.50;48.00
3136;DHT22;1578;47.658;9.922;2023-02-28T16:19:00;-0.40;48.50
3136;DHT22;1578;47.658;9.922;2023-02-28T16:21:26;-0.40;48.10
3136;DHT22;1578;47.658;9.922;2023-02-28T16:23:52;-0.40;47.70
3136;DHT22;1578;47.658;9.922;2023-02-28T16:26:21;-0.40;46.90
3136;DHT22;1578;47.658;9.922;2023-02-28T16:28:48;-0.40;47.40
3136;DHT22;1578;47.658;9.922;2023-02-28T16:31:14;-0.40;48.10
3136;DHT22;1578;47.658;9.922;2023-02-28T16:33:45;-0.50;46.80
3136;DHT22;1578;47.658;9.922;2023-02-28T16:36:20;-0.40;46.10
3136;DHT22;1578;47.658;9.922;2023-02-28T16:38:45;-0.50;48.50
3136;DHT22;1578;47.658;9.922;2023-02-28T16:41:19;-0.60;47.90
3136;DHT22;1578;47.658;9.922;2023-02-28T16:43:50;-0.60;47.90
3136;DHT22;1578;47.658;9.922;2023-02-28T16:46:16;-0.60;47.00
3136;DHT22;1578;47.658;9.922;2023-02-28T16:48:43;-0.70;49.10
3136;DHT22;1578;47.658;9.922;2023-02-28T16:51:16;-0.60;47.90
3136;DHT22;1578;47.658;9.922;2023-02-28T16:53:43;-0.60;47.90
3136;DHT22;1578;47.658;9.922;2023-02-28T16:56:18;-0.60;48.30
3136;DHT22;1578;47.658;9.922;2023-02-28T16:58:44;-0.50;48.00
3136;DHT22;1578;47.658;9.922;2023-02-28T17:01:10;-0.60;48.50
3136;DHT22;1578;47.658;9.922;2023-02-28T17:03:36;-0.60;47.50
3136;DHT22;1578;47.658;9.922;2023-02-28T17:06:03;-0.60;47.60
3136;DHT22;1578;47.658;9.922;2023-02-28T17:08:30;-0.60;48.70
3136;DHT22;1578;47.658;9.922;2023-02-28T17:10:57;-0.70;47.80
3136;DHT22;1578;47.658;9.922;2023-02-28T17:13:23;-0.80;48.80
3136;DHT22;1578;47.658;9.922;2023-02-28T17:15:50;-0.80;48.50
3136;DHT22;1578;47.658;9.922;2023-02-28T17:18:18;-0.80;49.40
3136;DHT22;1578;47.658;9.922;2023-02-28T17:20:45;-0.90;49.90
3136;DHT22;1578;47.658;9.922;2023-02-28T17:23:13;-0.80;49.50
3136;DHT22;1578;47.658;9.922;2023-02-28T17:25:39;-0.80;49.40
3136;DHT22;1578;47.658;9.922;2023-02-28T17:28:04;-0.90;50.70
3136;DHT22;1578;47.658;9.922;2023-02-28T17:30:34;-0.90;50.00
3136;DHT22;1578;47.658;9.922;2023-02-28T17:33:00;-1.00;49.50
3136;DHT22;1578;47.658;9.922;2023-02-28T17:35:25;-1.00;50.90
3136;DHT22;1578;47.658;9.922;2023-02-28T17:37:52;-1.00;50.50
3136;DHT22;1578;47.658;9.922;2023-02-28T17:40:22;-0.90;49.20
3136;DHT22;1578;47.658;9.922;2023-02-28T17:42:49;-0.90;49.90
3136;DHT22;1578;47.658;9.922;2023-02-28T17:45:17;-1.00;50.40
3136;DHT22;1578;47.658;9.922;2023-02-28T17:47:47;-1.00;50.10
3136;DHT22;1578;47.658;9.922;2023-02-28T17:50:17;-1.00;49.60
3136;DHT22;1578;47.658;9.922;2023-02-28T17:52:44;-1.10;51.20
3136;DHT22;1578;47.658;9.922;2023-02-28T17:55:10;-1.00;50.60
3136;DHT22;1578;47.658;9.922;2023-02-28T17:57:36;-1.00;47.90
3136;DHT22;1578;47.658;9.922;2023-02-28T18:00:02;-1.00;50.00
3136;DHT22;1578;47.658;9.922;2023-02-28T18:02:32;-1.00;50.00
3136;DHT22;1578;47.658;9.922;2023-02-28T18:04:58;-1.10;50.90
3136;DHT22;1578;47.658;9.922;2023-02-28T18:07:24;-1.00;51.00
3136;DHT22;1578;47.658;9.922;2023-02-28T18:09:50;-1.00;51.20
3136;DHT22;1578;47.658;9.922;2023-02-28T18:12:16;-1.10;51.10
3136;DHT22;1578;47.658;9.922;2023-02-28T18:14:41;-1.00;50.60
3136;DHT22;1578;47.658;9.922;2023-02-28T18:17:09;-0.90;50.30
3136;DHT22;1578;47.658;9.922;2023-02-28T18:19:37;-1.00;50.30
3136;DHT22;1578;47.658;9.922;2023-02-28T18:22:03;-0.90;49.20
3136;DHT22;1578;47.658;9.922;2023-02-28T18:24:31;-1.00;50.10
3136;DHT22;1578;47.658;9.922;2023-02-28T18:26:57;-1.10;50.30
3136;DHT22;1578;47.658;9.922;2023-02-28T18:29:25;-1.00;49.60
3136;DHT22;1578;47.658;9.922;2023-02-28T18:31:52;-1.00;50.00
3136;DHT22;1578;47.658;9.922;2023-02-28T18:34:18;-1.00;49.50
3136;DHT22;1578;47.658;9.922;2023-02-28T18:36:46;-1.10;50.70
3136;DHT22;1578;47.658;9.922;2023-02-28T18:39:14;-1.20;51.10
3136;DHT22;1578;47.658;9.922;2023-02-28T18:41:40;-1.20;51.30
3136;DHT22;1578;47.658;9.922;2023-02-28T18:44:06;-1.20;51.90
3136;DHT22;1578;47.658;9.922;2023-02-28T18:46:32;-1.20;51.70
3136;DHT22;1578;47.658;9.922;2023-02-28T18:48:58;-1.20;52.00
3136;DHT22;1578;47.658;9.922;2023-02-28T18:51:25;-1.10;51.20